createdAt,value
2019-05-23T00:05:25.626Z,9.50
2019-05-23T00:08:07.821Z,9.40
2019-05-23T00:10:52.982Z,9.40
2019-05-23T00:13:35.872Z,9.40
2019-05-23T00:16:18.504Z,9.40
2019-05-23T00:19:00.291Z,9.40
2019-05-23T00:21:42.366Z,9.30
2019-05-23T00:24:24.107Z,9.30
2019-05-23T00:27:07.097Z,9.30
2019-05-23T00:29:49.228Z,9.30
2019-05-23T00:32:34.257Z,9.30
2019-05-23T00:35:15.240Z,9.30
2019-05-23T00:37:56.724Z,9.20
2019-05-23T00:40:37.143Z,9.20
2019-05-23T00:43:18.005Z,9.20
2019-05-23T00:45:58.364Z,9.20
2019-05-23T00:48:39.083Z,9.10
2019-05-23T00:51:21.490Z,9.10
2019-05-23T00:54:03.337Z,9.10
2019-05-23T00:56:44.341Z,9.10
2019-05-23T00:59:27.893Z,9.10
2019-05-23T01:02:09.489Z,9.00
2019-05-23T01:04:50.861Z,9.00
2019-05-23T01:07:31.772Z,9.00
2019-05-23T01:10:12.324Z,9.00
2019-05-23T01:12:53.457Z,8.90
2019-05-23T01:15:34.917Z,8.90
2019-05-23T01:18:15.497Z,8.90
2019-05-23T01:20:58.420Z,8.90
2019-05-23T01:23:40.580Z,8.80
2019-05-23T01:26:21.095Z,8.80
2019-05-23T01:29:01.769Z,8.80
2019-05-23T01:31:44.366Z,8.80
2019-05-23T01:34:26.388Z,8.80
2019-05-23T01:37:08.339Z,8.80
2019-05-23T01:39:49.800Z,8.80
2019-05-23T01:42:30.568Z,8.70
2019-05-23T01:45:12.072Z,8.70
2019-05-23T01:47:53.381Z,8.70
2019-05-23T01:50:34.015Z,8.70
2019-05-23T01:53:15.639Z,8.70
2019-05-23T01:55:56.201Z,8.70
2019-05-23T01:58:37.036Z,8.70
2019-05-23T02:01:17.606Z,8.60
2019-05-23T02:03:58.739Z,8.60
2019-05-23T02:06:39.411Z,8.60
2019-05-23T02:09:20.265Z,8.60
2019-05-23T02:12:01.816Z,8.60
2019-05-23T02:14:44.344Z,8.50
2019-05-23T02:17:25.268Z,8.50
2019-05-23T02:20:06.629Z,8.50
2019-05-23T02:22:47.818Z,8.50
2019-05-23T02:25:29.149Z,8.40
2019-05-23T02:28:10.445Z,8.40
2019-05-23T02:30:51.355Z,8.30
2019-05-23T02:33:32.580Z,8.30
2019-05-23T02:36:13.361Z,8.30
2019-05-23T02:39:13.220Z,8.20
2019-05-23T02:41:55.268Z,8.10
2019-05-23T02:44:35.453Z,8.10
2019-05-23T02:47:35.159Z,8.00
2019-05-23T02:50:17.320Z,8.00
2019-05-23T02:52:58.301Z,8.00
2019-05-23T02:55:38.825Z,8.00
2019-05-23T02:58:19.537Z,7.90
2019-05-23T03:01:01.089Z,7.90
2019-05-23T03:03:41.774Z,7.90
2019-05-23T03:06:22.323Z,7.90
2019-05-23T03:09:03.517Z,7.90
2019-05-23T03:11:44.600Z,7.90
2019-05-23T03:14:26.754Z,7.90
2019-05-23T03:17:07.894Z,7.90
2019-05-23T03:20:16.343Z,7.90
2019-05-23T03:23:24.787Z,7.80
2019-05-23T03:26:05.262Z,7.90
2019-05-23T03:28:46.173Z,7.80
2019-05-23T03:31:32.001Z,7.80
2019-05-23T03:34:12.303Z,7.80
2019-05-23T03:36:53.197Z,7.70
2019-05-23T03:39:33.774Z,7.70
2019-05-23T03:42:15.028Z,7.70
2019-05-23T03:44:55.925Z,7.70
2019-05-23T03:47:37.461Z,7.70
2019-05-23T03:50:19.039Z,7.70
2019-05-23T03:52:59.449Z,7.80
2019-05-23T03:55:42.006Z,7.80
2019-05-23T03:58:22.381Z,7.80
2019-05-23T04:01:04.632Z,7.90
2019-05-23T04:03:45.057Z,7.90
2019-05-23T04:06:26.542Z,7.90
2019-05-23T04:09:07.792Z,8.00
2019-05-23T04:11:48.648Z,8.00
2019-05-23T04:14:29.333Z,8.10
2019-05-23T04:17:10.412Z,8.10
2019-05-23T04:19:51.117Z,8.20
2019-05-23T04:22:32.098Z,8.20
2019-05-23T04:25:12.891Z,8.30
2019-05-23T04:27:54.480Z,8.20
2019-05-23T04:30:35.501Z,8.30
2019-05-23T04:33:16.805Z,8.40
2019-05-23T04:35:57.687Z,8.50
2019-05-23T04:38:39.121Z,8.60
2019-05-23T04:41:19.740Z,8.80
2019-05-23T04:44:00.311Z,8.90
2019-05-23T04:46:41.245Z,8.90
2019-05-23T04:49:21.750Z,9.00
2019-05-23T04:52:02.895Z,9.10
2019-05-23T04:54:43.962Z,9.10
2019-05-23T04:57:26.897Z,9.20
2019-05-23T05:00:09.188Z,9.30
2019-05-23T05:02:49.627Z,9.40
2019-05-23T05:05:30.639Z,9.50
2019-05-23T05:08:11.062Z,9.60
2019-05-23T05:10:52.629Z,9.80
2019-05-23T05:13:33.588Z,9.80
2019-05-23T05:16:14.531Z,9.80
2019-05-23T05:18:55.711Z,9.70
2019-05-23T05:21:36.792Z,9.80
2019-05-23T05:24:17.543Z,10.00
2019-05-23T05:26:57.844Z,10.20
2019-05-23T05:29:38.830Z,10.40
2019-05-23T05:32:20.217Z,10.50
2019-05-23T05:35:01.291Z,10.60
2019-05-23T05:37:42.092Z,10.80
2019-05-23T05:40:22.677Z,11.10
2019-05-23T05:43:04.069Z,11.30
2019-05-23T05:45:45.653Z,11.50
2019-05-23T05:48:26.381Z,11.70
2019-05-23T05:51:07.464Z,11.90
2019-05-23T05:53:48.375Z,12.20
2019-05-23T05:56:28.608Z,12.40
2019-05-23T05:59:08.982Z,12.30
2019-05-23T06:01:49.653Z,12.50
2019-05-23T06:04:30.541Z,12.70
2019-05-23T06:07:15.841Z,12.50
2019-05-23T06:09:57.680Z,12.80
2019-05-23T06:12:38.525Z,13.30
2019-05-23T06:15:19.673Z,13.80
2019-05-23T06:18:00.589Z,14.40
2019-05-23T06:20:42.780Z,14.80
2019-05-23T06:23:23.238Z,15.40
2019-05-23T06:26:04.312Z,16.00
2019-05-23T06:28:44.990Z,16.70
2019-05-23T06:31:25.172Z,17.10
2019-05-23T06:34:05.852Z,17.50
2019-05-23T06:36:46.920Z,17.60
2019-05-23T06:39:27.979Z,18.20
2019-05-23T06:42:09.079Z,19.00
2019-05-23T06:44:50.751Z,19.80
2019-05-23T06:47:32.185Z,20.20
2019-05-23T06:50:14.145Z,20.40
2019-05-23T06:52:58.160Z,20.40
2019-05-23T06:55:38.500Z,20.20
2019-05-23T06:58:19.374Z,19.90
2019-05-23T07:01:00.538Z,20.00
2019-05-23T07:03:43.376Z,20.10
2019-05-23T07:06:23.082Z,19.70
2019-05-23T07:09:04.278Z,19.40
2019-05-23T07:11:44.656Z,19.20
2019-05-23T07:14:25.737Z,19.40
2019-05-23T07:17:06.804Z,19.70
2019-05-23T07:19:47.264Z,19.60
2019-05-23T07:22:27.800Z,19.80
2019-05-23T07:25:08.522Z,19.80
2019-05-23T07:27:49.455Z,20.20
2019-05-23T07:30:30.349Z,20.40
2019-05-23T07:33:11.241Z,20.40
2019-05-23T07:35:51.955Z,20.70
2019-05-23T07:38:32.499Z,20.90
2019-05-23T07:41:13.968Z,20.90
2019-05-23T07:43:54.620Z,21.00
2019-05-23T07:46:35.275Z,21.20
2019-05-23T07:49:16.021Z,21.40
2019-05-23T07:51:56.650Z,21.50
2019-05-23T07:54:41.704Z,21.40
2019-05-23T07:57:23.288Z,21.30
2019-05-23T08:00:05.886Z,21.20
2019-05-23T08:02:46.881Z,21.30
2019-05-23T08:05:27.824Z,21.50
2019-05-23T08:08:08.365Z,21.90
2019-05-23T08:10:49.104Z,22.00
2019-05-23T08:13:30.480Z,22.50
2019-05-23T08:16:11.318Z,22.80
2019-05-23T08:18:51.678Z,22.80
2019-05-23T08:21:32.781Z,22.70
2019-05-23T08:24:14.489Z,22.60
2019-05-23T08:26:55.541Z,22.30
2019-05-23T08:29:36.663Z,22.00
2019-05-23T08:32:16.892Z,22.00
2019-05-23T08:34:57.368Z,22.10
2019-05-23T08:37:38.080Z,22.30
2019-05-23T08:40:18.602Z,22.20
2019-05-23T08:42:59.456Z,22.30
2019-05-23T08:45:39.949Z,22.40
2019-05-23T08:48:20.589Z,22.60
2019-05-23T08:51:01.247Z,22.70
2019-05-23T08:53:41.687Z,22.70
2019-05-23T08:56:22.484Z,23.30
2019-05-23T08:59:03.658Z,23.50
2019-05-23T09:01:45.337Z,23.50
2019-05-23T09:04:26.122Z,23.70
2019-05-23T09:07:06.553Z,23.80
2019-05-23T09:09:47.312Z,23.40
2019-05-23T09:12:28.332Z,23.40
2019-05-23T09:15:10.326Z,23.50
2019-05-23T09:17:53.874Z,23.90
2019-05-23T09:20:34.161Z,24.10
2019-05-23T09:23:15.088Z,24.10
2019-05-23T09:25:56.058Z,24.30
2019-05-23T09:28:36.849Z,24.20
2019-05-23T09:31:17.553Z,24.00
2019-05-23T09:33:58.448Z,23.60
2019-05-23T09:36:39.444Z,23.70
2019-05-23T09:39:21.588Z,23.90
2019-05-23T09:42:02.322Z,24.00
2019-05-23T09:44:43.233Z,24.20
2019-05-23T09:47:23.748Z,23.60
2019-05-23T09:50:05.521Z,23.50
2019-05-23T09:52:46.241Z,23.60
2019-05-23T09:55:28.152Z,23.80
2019-05-23T09:58:08.932Z,24.30
2019-05-23T10:00:49.393Z,24.50
2019-05-23T10:03:30.122Z,24.10
2019-05-23T10:06:10.947Z,23.90
2019-05-23T10:08:51.580Z,24.40
2019-05-23T10:11:32.448Z,25.00
2019-05-23T10:14:14.583Z,25.60
2019-05-23T10:16:55.958Z,26.10
2019-05-23T10:19:36.796Z,26.30
2019-05-23T10:22:17.522Z,26.40
2019-05-23T10:24:58.374Z,26.50
2019-05-23T10:27:38.658Z,26.50
2019-05-23T10:30:19.756Z,26.50
2019-05-23T10:33:00.496Z,26.40
2019-05-23T10:35:58.540Z,26.30
2019-05-23T10:38:24.041Z,26.50
2019-05-23T10:41:04.881Z,26.80
2019-05-23T10:43:45.044Z,27.20
2019-05-23T10:46:25.770Z,27.30
2019-05-23T10:49:06.359Z,27.40
2019-05-23T10:51:47.072Z,27.40
2019-05-23T10:54:28.099Z,27.50
2019-05-23T10:57:09.194Z,27.40
2019-05-23T10:59:50.027Z,27.70
2019-05-23T11:02:30.692Z,27.90
2019-05-23T11:05:13.889Z,28.00
2019-05-23T11:07:54.391Z,28.10
2019-05-23T11:10:35.163Z,28.10
2019-05-23T11:13:16.418Z,28.00
2019-05-23T11:15:57.179Z,28.20
2019-05-23T11:18:38.284Z,28.20
2019-05-23T11:21:19.205Z,27.70
2019-05-23T11:24:00.134Z,27.20
2019-05-23T11:26:41.136Z,27.10
2019-05-23T11:29:21.984Z,27.10
2019-05-23T11:32:03.881Z,27.20
2019-05-23T11:34:45.369Z,27.50
2019-05-23T11:37:25.934Z,27.80
2019-05-23T11:40:06.632Z,27.80
2019-05-23T11:42:47.125Z,28.30
2019-05-23T11:45:29.365Z,28.20
2019-05-23T11:48:10.376Z,28.00
2019-05-23T11:50:51.212Z,27.20
2019-05-23T11:53:31.921Z,26.80
2019-05-23T11:56:13.170Z,26.60
2019-05-23T11:58:53.635Z,27.00
2019-05-23T12:01:38.749Z,27.10
2019-05-23T12:04:21.000Z,27.00
2019-05-23T12:07:03.493Z,27.50
2019-05-23T12:09:42.232Z,27.60
2019-05-23T12:18:33.247Z,27.10
2019-05-23T12:27:07.227Z,28.20
2019-05-23T12:29:48.188Z,28.10
2019-05-23T12:32:29.113Z,28.30
2019-05-23T12:35:11.807Z,28.70
2019-05-23T12:37:52.462Z,28.60
2019-05-23T12:40:33.035Z,28.30
2019-05-23T12:43:13.584Z,28.30
2019-05-23T12:45:54.307Z,28.40
2019-05-23T12:48:39.352Z,28.50
2019-05-23T12:51:38.741Z,27.80
2019-05-23T12:54:20.334Z,27.50
2019-05-23T12:57:01.000Z,27.90
2019-05-23T12:59:41.789Z,28.40
2019-05-23T13:02:23.984Z,28.20
2019-05-23T13:05:05.373Z,27.60
2019-05-23T13:07:45.578Z,27.50
2019-05-23T13:10:26.292Z,27.40
2019-05-23T13:13:07.493Z,27.40
2019-05-23T13:15:47.789Z,27.30
2019-05-23T13:18:28.513Z,27.60
2019-05-23T13:21:09.671Z,27.40
2019-05-23T13:23:50.880Z,27.20
2019-05-23T13:26:31.615Z,27.40
2019-05-23T13:29:12.681Z,27.80
2019-05-23T13:31:53.517Z,27.90
2019-05-23T13:34:33.896Z,27.90
2019-05-23T13:37:17.002Z,27.80
2019-05-23T13:39:57.040Z,27.60
2019-05-23T13:42:37.914Z,27.20
2019-05-23T13:45:18.501Z,27.20
2019-05-23T13:47:59.035Z,27.40
2019-05-23T13:50:40.082Z,27.70
2019-05-23T13:53:20.956Z,27.30
2019-05-23T13:56:01.547Z,26.80
2019-05-23T13:58:42.506Z,26.50
2019-05-23T14:01:23.219Z,26.80
2019-05-23T14:04:03.831Z,27.10
2019-05-23T14:06:44.824Z,27.50
2019-05-23T14:09:25.428Z,27.80
2019-05-23T14:12:20.574Z,28.00
2019-05-23T14:14:48.478Z,27.70
2019-05-23T14:17:33.344Z,27.10
2019-05-23T14:20:13.892Z,26.70
2019-05-23T14:22:59.077Z,26.60
2019-05-23T14:25:39.954Z,26.90
2019-05-23T14:28:20.499Z,27.10
2019-05-23T14:34:09.554Z,27.40
2019-05-23T14:36:51.821Z,27.50
2019-05-23T14:39:33.988Z,27.00
2019-05-23T14:42:16.324Z,26.50
2019-05-23T14:44:56.796Z,26.30
2019-05-23T14:47:41.792Z,26.30
2019-05-23T14:53:28.333Z,26.60
2019-05-23T14:56:09.388Z,26.70
2019-05-23T14:58:50.012Z,26.80
2019-05-23T15:01:32.323Z,26.80
2019-05-23T15:04:13.444Z,26.50
2019-05-23T15:06:54.177Z,25.90
2019-05-23T15:09:34.668Z,25.60
2019-05-23T15:12:15.188Z,25.40
2019-05-23T15:14:56.134Z,25.40
2019-05-23T15:17:36.379Z,25.60
2019-05-23T15:20:17.170Z,25.80
2019-05-23T15:22:59.976Z,25.90
2019-05-23T15:25:40.935Z,26.00
2019-05-23T15:28:21.252Z,26.20
2019-05-23T15:31:02.191Z,26.30
2019-05-23T15:33:42.566Z,26.40
2019-05-23T15:36:22.976Z,26.30
2019-05-23T15:39:09.597Z,26.20
2019-05-23T15:41:45.927Z,25.80
2019-05-23T15:44:29.705Z,25.60
2019-05-23T15:47:09.826Z,25.70
2019-05-23T15:49:52.410Z,25.60
2019-05-23T15:52:35.033Z,25.40
2019-05-23T15:55:36.033Z,25.20
2019-05-23T15:58:22.120Z,25.30
2019-05-23T16:01:02.273Z,25.30
2019-05-23T16:06:51.716Z,25.00
2019-05-23T16:09:32.328Z,25.00
2019-05-23T16:12:13.209Z,24.90
2019-05-23T16:14:53.976Z,24.60
2019-05-23T16:17:34.922Z,24.50
2019-05-23T16:20:16.000Z,24.40
2019-05-23T16:22:56.853Z,24.40
2019-05-23T16:25:37.825Z,24.50
2019-05-23T16:28:18.493Z,24.60
2019-05-23T16:30:59.205Z,24.50
2019-05-23T16:33:39.953Z,24.50
2019-05-23T16:36:20.496Z,24.30
2019-05-23T16:39:00.996Z,24.20
2019-05-23T16:41:41.404Z,24.00
2019-05-23T16:44:21.850Z,23.90
2019-05-23T16:47:02.573Z,23.90
2019-05-23T16:49:43.152Z,23.70
2019-05-23T16:52:24.123Z,23.60
2019-05-23T16:55:06.750Z,23.60
2019-05-23T16:57:49.334Z,23.50
2019-05-23T17:03:38.920Z,23.40
2019-05-23T17:10:06.654Z,23.30
2019-05-23T17:12:31.796Z,23.30
2019-05-23T17:15:14.572Z,23.10
2019-05-23T17:20:54.120Z,22.80
2019-05-23T17:23:55.117Z,22.60
2019-05-23T17:29:47.661Z,22.30
2019-05-23T17:32:29.751Z,22.20
2019-05-23T17:35:10.834Z,22.10
2019-05-23T17:37:51.396Z,22.00
2019-05-23T17:40:32.208Z,21.90
2019-05-23T17:43:13.280Z,21.90
2019-05-23T17:45:53.749Z,21.80
2019-05-23T17:48:34.332Z,21.70
2019-05-23T17:51:15.401Z,21.60
2019-05-23T17:53:56.269Z,21.60
2019-05-23T17:56:36.618Z,21.50
2019-05-23T17:59:16.763Z,21.40
2019-05-23T18:01:57.487Z,21.30
2019-05-23T18:04:37.983Z,21.20
2019-05-23T18:07:18.826Z,21.10
2019-05-23T18:09:59.180Z,21.00
2019-05-23T18:12:39.881Z,21.00
2019-05-23T18:15:21.581Z,20.90
2019-05-23T18:18:01.957Z,20.90
2019-05-23T18:20:43.193Z,20.90
2019-05-23T18:23:24.495Z,20.90
2019-05-23T18:26:05.164Z,20.80
2019-05-23T18:28:46.257Z,20.80
2019-05-23T18:31:31.753Z,20.80
2019-05-23T18:34:13.982Z,20.80
2019-05-23T18:36:55.574Z,20.70
2019-05-23T18:39:36.238Z,20.60
2019-05-23T18:42:17.320Z,20.50
2019-05-23T18:44:58.341Z,20.30
2019-05-23T18:47:40.833Z,20.20
2019-05-23T18:50:22.548Z,19.90
2019-05-23T18:53:04.116Z,19.80
2019-05-23T18:55:44.625Z,19.60
2019-05-23T18:58:25.156Z,19.50
2019-05-23T19:01:10.473Z,19.40
2019-05-23T19:03:51.492Z,19.20
2019-05-23T19:06:32.332Z,19.10
2019-05-23T19:09:13.974Z,19.00
2019-05-23T19:11:55.293Z,18.90
2019-05-23T19:14:36.116Z,18.70
2019-05-23T19:17:17.684Z,18.60
2019-05-23T19:19:58.678Z,18.50
2019-05-23T19:22:39.671Z,18.30
2019-05-23T19:25:20.541Z,18.20
2019-05-23T19:28:01.255Z,18.00
2019-05-23T19:30:42.204Z,17.90
2019-05-23T19:33:23.595Z,17.80
2019-05-23T19:36:05.765Z,17.70
2019-05-23T19:38:46.649Z,17.60
2019-05-23T19:41:36.822Z,17.50
2019-05-23T19:44:10.391Z,17.40
2019-05-23T19:46:51.320Z,17.20
2019-05-23T19:49:31.917Z,17.10
2019-05-23T19:52:12.985Z,17.00
2019-05-23T19:54:53.196Z,16.90
2019-05-23T19:57:34.232Z,16.80
2019-05-23T20:00:17.064Z,16.70
2019-05-23T20:02:59.017Z,16.60
2019-05-23T20:05:41.443Z,16.50
2019-05-23T20:08:22.348Z,16.40
2019-05-23T20:11:03.329Z,16.30
2019-05-23T20:13:44.203Z,16.20
2019-05-23T20:16:24.705Z,16.10
2019-05-23T20:19:05.574Z,16.00
2019-05-23T20:21:46.625Z,15.90
2019-05-23T20:24:27.366Z,15.80
2019-05-23T20:27:07.784Z,15.70
2019-05-23T20:29:48.408Z,15.70
2019-05-23T20:32:28.872Z,15.60
2019-05-23T20:35:10.217Z,15.50
2019-05-23T20:37:51.110Z,15.50
2019-05-23T20:40:31.853Z,15.40
2019-05-23T20:43:13.072Z,15.30
2019-05-23T20:45:53.809Z,15.20
2019-05-23T20:48:34.577Z,15.20
2019-05-23T20:51:16.092Z,15.10
2019-05-23T20:53:57.081Z,15.00
2019-05-23T20:56:38.147Z,14.90
2019-05-23T20:59:18.908Z,14.90
2019-05-23T21:01:59.517Z,14.80
2019-05-23T21:04:39.889Z,14.80
2019-05-23T21:07:20.112Z,14.70
2019-05-23T21:10:00.922Z,14.60
2019-05-23T21:12:41.566Z,14.50
2019-05-23T21:15:22.276Z,14.50
2019-05-23T21:18:02.968Z,14.40
2019-05-23T21:20:43.671Z,14.40
2019-05-23T21:23:24.608Z,14.30
2019-05-23T21:26:06.269Z,14.20
2019-05-23T21:28:47.388Z,14.20
2019-05-23T21:31:27.920Z,14.20
2019-05-23T21:34:08.568Z,14.10
2019-05-23T21:36:49.333Z,14.00
2019-05-23T21:39:30.719Z,14.00
2019-05-23T21:42:11.831Z,13.90
2019-05-23T21:44:52.765Z,13.90
2019-05-23T21:47:33.452Z,13.80
2019-05-23T21:50:14.396Z,13.80
2019-05-23T21:52:54.966Z,13.70
2019-05-23T21:55:35.574Z,13.70
2019-05-23T21:58:16.727Z,13.70
2019-05-23T22:01:17.029Z,13.60
2019-05-23T22:04:03.156Z,13.60
2019-05-23T22:09:49.142Z,13.40
2019-05-23T22:12:37.140Z,13.40
2019-05-23T22:15:44.420Z,13.40
2019-05-23T22:21:40.883Z,13.30
2019-05-23T22:24:28.884Z,13.30
2019-05-23T22:27:09.986Z,13.20
2019-05-23T22:29:50.704Z,13.20
2019-05-23T22:32:33.215Z,13.20
2019-05-23T22:35:15.585Z,13.20
2019-05-23T22:37:56.026Z,13.20
2019-05-23T22:40:38.544Z,13.10
2019-05-23T22:43:21.331Z,13.10
2019-05-23T22:46:01.609Z,13.00
2019-05-23T22:48:42.039Z,13.00
2019-05-23T22:51:22.740Z,13.00
2019-05-23T22:54:04.156Z,12.90
2019-05-23T22:56:44.740Z,12.80
2019-05-23T22:59:25.225Z,12.70
2019-05-23T23:02:07.860Z,12.70
2019-05-23T23:04:48.741Z,12.60
2019-05-23T23:07:29.871Z,12.60
2019-05-23T23:10:10.226Z,12.60
2019-05-23T23:12:50.972Z,12.50
2019-05-23T23:15:32.766Z,12.50
2019-05-23T23:18:13.686Z,12.50
2019-05-23T23:20:54.232Z,12.40
2019-05-23T23:23:35.084Z,12.40
2019-05-23T23:26:15.878Z,12.30
2019-05-23T23:28:57.103Z,12.30
2019-05-23T23:31:37.696Z,12.20
2019-05-23T23:34:18.392Z,12.20
2019-05-23T23:36:59.272Z,12.10
2019-05-23T23:39:39.689Z,12.00
2019-05-23T23:42:20.464Z,12.00
2019-05-23T23:45:20.694Z,11.90
2019-05-23T23:48:20.916Z,11.90
2019-05-23T23:54:26.033Z,11.80
2019-05-23T23:57:26.518Z,11.80
